sensor_id;sensor_type;location;lat;lon;timestamp;P1;durP1;ratioP1;P2;durP2;ratioP2
15595;SDS011;7898;48.658;9.068;2023-05-10T00:01:32;1.83;;;0.95;;
15595;SDS011;7898;48.658;9.068;2023-05-10T00:03:59;1.58;;;0.90;;
15595;SDS011;7898;48.658;9.068;2023-05-10T00:06:25;1.25;;;0.88;;
15595;SDS011;7898;48.658;9.068;2023-05-10T00:08:54;1.02;;;0.93;;
15595;SDS011;7898;48.658;9.068;2023-05-10T00:11:21;3.10;;;0.90;;
15595;SDS011;7898;48.658;9.068;2023-05-10T00:13:47;1.90;;;1.00;;
15595;SDS011;7898;48.658;9.068;2023-05-10T00:16:14;0.88;;;0.88;;
15595;SDS011;7898;48.658;9.068;2023-05-10T00:18:41;1.15;;;1.05;;
15595;SDS011;7898;48.658;9.068;2023-05-10T00:21:08;1.23;;;0.90;;
15595;SDS011;7898;48.658;9.068;2023-05-10T00:23:35;0.82;;;0.82;;
15595;SDS011;7898;48.658;9.068;2023-05-10T00:26:03;2.55;;;0.77;;
15595;SDS011;7898;48.658;9.068;2023-05-10T00:28:30;0.98;;;0.80;;
15595;SDS011;7898;48.658;9.068;2023-05-10T00:30:57;1.02;;;0.60;;
15595;SDS011;7898;48.658;9.068;2023-05-10T00:33:24;0.80;;;0.80;;
15595;SDS011;7898;48.658;9.068;2023-05-10T00:35:51;0.60;;;0.60;;
15595;SDS011;7898;48.658;9.068;2023-05-10T00:38:18;0.85;;;0.70;;
15595;SDS011;7898;48.658;9.068;2023-05-10T00:40:45;1.83;;;0.60;;
15595;SDS011;7898;48.658;9.068;2023-05-10T00:43:13;0.77;;;0.50;;
15595;SDS011;7898;48.658;9.068;2023-05-10T00:45:40;1.30;;;0.82;;
15595;SDS011;7898;48.658;9.068;2023-05-10T00:48:07;0.98;;;0.80;;
15595;SDS011;7898;48.658;9.068;2023-05-10T00:50:34;0.63;;;0.63;;
15595;SDS011;7898;48.658;9.068;2023-05-10T00:53:01;0.93;;;0.50;;
15595;SDS011;7898;48.658;9.068;2023-05-10T00:55:29;1.42;;;0.47;;
15595;SDS011;7898;48.658;9.068;2023-05-10T00:57:56;0.85;;;0.70;;
15595;SDS011;7898;48.658;9.068;2023-05-10T01:00:24;0.80;;;0.80;;
15595;SDS011;7898;48.658;9.068;2023-05-10T01:02:52;0.90;;;0.52;;
15595;SDS011;7898;48.658;9.068;2023-05-10T01:05:19;1.27;;;0.60;;
15595;SDS011;7898;48.658;9.068;2023-05-10T01:07:46;2.28;;;0.60;;
15595;SDS011;7898;48.658;9.068;2023-05-10T01:10:13;2.25;;;0.60;;
15595;SDS011;7898;48.658;9.068;2023-05-10T01:12:42;0.50;;;0.40;;
15595;SDS011;7898;48.658;9.068;2023-05-10T01:15:11;1.48;;;0.40;;
15595;SDS011;7898;48.658;9.068;2023-05-10T01:17:42;2.95;;;0.50;;
15595;SDS011;7898;48.658;9.068;2023-05-10T01:20:12;0.88;;;0.40;;
15595;SDS011;7898;48.658;9.068;2023-05-10T01:25:43;4.25;;;0.63;;
15595;SDS011;7898;48.658;9.068;2023-05-10T01:28:39;0.40;;;0.30;;
15595;SDS011;7898;48.658;9.068;2023-05-10T01:31:26;0.80;;;0.40;;
15595;SDS011;7898;48.658;9.068;2023-05-10T01:34:10;0.30;;;0.30;;
15595;SDS011;7898;48.658;9.068;2023-05-10T01:36:42;0.40;;;0.35;;
15595;SDS011;7898;48.658;9.068;2023-05-10T01:39:15;1.08;;;0.13;;
15595;SDS011;7898;48.658;9.068;2023-05-10T01:41:48;0.20;;;0.20;;
15595;SDS011;7898;48.658;9.068;2023-05-10T01:44:20;0.85;;;0.40;;
15595;SDS011;7898;48.658;9.068;2023-05-10T01:46:57;2.47;;;0.30;;
15595;SDS011;7898;48.658;9.068;2023-05-10T01:49:31;1.85;;;0.38;;
15595;SDS011;7898;48.658;9.068;2023-05-10T01:52:03;2.28;;;0.40;;
15595;SDS011;7898;48.658;9.068;2023-05-10T01:54:34;0.50;;;0.40;;
15595;SDS011;7898;48.658;9.068;2023-05-10T01:57:05;1.20;;;0.30;;
15595;SDS011;7898;48.658;9.068;2023-05-10T01:59:35;0.93;;;0.50;;
15595;SDS011;7898;48.658;9.068;2023-05-10T02:02:05;0.65;;;0.40;;
15595;SDS011;7898;48.658;9.068;2023-05-10T02:04:38;2.92;;;0.40;;
15595;SDS011;7898;48.658;9.068;2023-05-10T02:07:06;2.05;;;0.50;;
15595;SDS011;7898;48.658;9.068;2023-05-10T02:09:34;0.55;;;0.20;;
15595;SDS011;7898;48.658;9.068;2023-05-10T02:12:02;0.25;;;0.25;;
15595;SDS011;7898;48.658;9.068;2023-05-10T02:14:32;0.60;;;0.50;;
15595;SDS011;7898;48.658;9.068;2023-05-10T02:17:01;0.60;;;0.30;;
15595;SDS011;7898;48.658;9.068;2023-05-10T02:19:30;1.95;;;0.40;;
15595;SDS011;7898;48.658;9.068;2023-05-10T02:21:59;3.70;;;0.47;;
15595;SDS011;7898;48.658;9.068;2023-05-10T02:24:27;1.52;;;0.50;;
15595;SDS011;7898;48.658;9.068;2023-05-10T02:26:55;0.68;;;0.40;;
15595;SDS011;7898;48.658;9.068;2023-05-10T02:29:23;6.13;;;1.65;;
15595;SDS011;7898;48.658;9.068;2023-05-10T02:31:54;2.25;;;0.40;;
15595;SDS011;7898;48.658;9.068;2023-05-10T02:34:22;1.73;;;0.40;;
15595;SDS011;7898;48.658;9.068;2023-05-10T02:36:51;0.32;;;0.32;;
15595;SDS011;7898;48.658;9.068;2023-05-10T02:39:20;0.85;;;0.40;;
15595;SDS011;7898;48.658;9.068;2023-05-10T02:41:48;1.88;;;0.60;;
15595;SDS011;7898;48.658;9.068;2023-05-10T02:44:17;0.85;;;0.60;;
15595;SDS011;7898;48.658;9.068;2023-05-10T02:46:46;0.47;;;0.47;;
15595;SDS011;7898;48.658;9.068;2023-05-10T02:49:13;0.75;;;0.50;;
15595;SDS011;7898;48.658;9.068;2023-05-10T02:51:41;0.63;;;0.50;;
15595;SDS011;7898;48.658;9.068;2023-05-10T02:54:11;1.50;;;0.40;;
15595;SDS011;7898;48.658;9.068;2023-05-10T02:56:43;0.77;;;0.50;;
15595;SDS011;7898;48.658;9.068;2023-05-10T02:59:15;0.50;;;0.50;;
15595;SDS011;7898;48.658;9.068;2023-05-10T03:01:42;1.35;;;0.60;;
15595;SDS011;7898;48.658;9.068;2023-05-10T03:04:09;0.47;;;0.38;;
15595;SDS011;7898;48.658;9.068;2023-05-10T03:06:36;0.60;;;0.60;;
15595;SDS011;7898;48.658;9.068;2023-05-10T03:09:03;0.85;;;0.80;;
15595;SDS011;7898;48.658;9.068;2023-05-10T03:11:37;2.08;;;0.70;;
15595;SDS011;7898;48.658;9.068;2023-05-10T03:14:20;2.67;;;0.90;;
15595;SDS011;7898;48.658;9.068;2023-05-10T03:16:56;1.00;;;0.75;;
15595;SDS011;7898;48.658;9.068;2023-05-10T03:19:27;2.83;;;0.90;;
15595;SDS011;7898;48.658;9.068;2023-05-10T03:22:03;2.15;;;0.80;;
15595;SDS011;7898;48.658;9.068;2023-05-10T03:24:35;1.80;;;0.90;;
15595;SDS011;7898;48.658;9.068;2023-05-10T03:27:02;1.58;;;0.80;;
15595;SDS011;7898;48.658;9.068;2023-05-10T03:29:32;1.23;;;1.02;;
15595;SDS011;7898;48.658;9.068;2023-05-10T03:31:59;1.30;;;0.85;;
15595;SDS011;7898;48.658;9.068;2023-05-10T03:34:26;1.10;;;0.93;;
15595;SDS011;7898;48.658;9.068;2023-05-10T03:36:56;0.80;;;0.80;;
15595;SDS011;7898;48.658;9.068;2023-05-10T03:39:23;1.50;;;1.10;;
15595;SDS011;7898;48.658;9.068;2023-05-10T03:41:50;4.65;;;1.60;;
15595;SDS011;7898;48.658;9.068;2023-05-10T03:44:17;0.90;;;0.82;;
15595;SDS011;7898;48.658;9.068;2023-05-10T03:46:45;1.10;;;1.00;;
15595;SDS011;7898;48.658;9.068;2023-05-10T03:49:12;0.98;;;0.88;;
15595;SDS011;7898;48.658;9.068;2023-05-10T03:51:39;3.15;;;1.00;;
15595;SDS011;7898;48.658;9.068;2023-05-10T03:54:06;1.17;;;1.05;;
15595;SDS011;7898;48.658;9.068;2023-05-10T03:56:33;1.63;;;0.90;;
15595;SDS011;7898;48.658;9.068;2023-05-10T03:58:59;2.40;;;1.02;;
15595;SDS011;7898;48.658;9.068;2023-05-10T04:01:26;4.20;;;1.33;;
15595;SDS011;7898;48.658;9.068;2023-05-10T04:03:54;3.30;;;1.15;;
15595;SDS011;7898;48.658;9.068;2023-05-10T04:06:21;1.98;;;1.27;;
15595;SDS011;7898;48.658;9.068;2023-05-10T04:08:48;1.27;;;1.15;;
15595;SDS011;7898;48.658;9.068;2023-05-10T04:11:15;1.00;;;0.85;;
15595;SDS011;7898;48.658;9.068;2023-05-10T04:13:42;1.10;;;0.80;;
15595;SDS011;7898;48.658;9.068;2023-05-10T04:16:09;2.38;;;1.20;;
15595;SDS011;7898;48.658;9.068;2023-05-10T04:18:36;2.75;;;0.98;;
15595;SDS011;7898;48.658;9.068;2023-05-10T04:21:04;8.02;;;1.45;;
15595;SDS011;7898;48.658;9.068;2023-05-10T04:23:36;1.37;;;1.10;;
15595;SDS011;7898;48.658;9.068;2023-05-10T04:26:03;2.42;;;1.40;;
15595;SDS011;7898;48.658;9.068;2023-05-10T04:28:30;2.65;;;2.38;;
15595;SDS011;7898;48.658;9.068;2023-05-10T04:31:01;4.55;;;2.70;;
15595;SDS011;7898;48.658;9.068;2023-05-10T04:33:28;5.55;;;2.50;;
15595;SDS011;7898;48.658;9.068;2023-05-10T04:35:55;2.85;;;1.70;;
15595;SDS011;7898;48.658;9.068;2023-05-10T04:38:24;3.42;;;1.35;;
15595;SDS011;7898;48.658;9.068;2023-05-10T04:40:50;1.63;;;1.52;;
15595;SDS011;7898;48.658;9.068;2023-05-10T04:43:17;2.20;;;1.58;;
15595;SDS011;7898;48.658;9.068;2023-05-10T04:45:45;3.60;;;1.52;;
15595;SDS011;7898;48.658;9.068;2023-05-10T04:48:12;1.98;;;1.42;;
15595;SDS011;7898;48.658;9.068;2023-05-10T04:50:39;5.43;;;1.40;;
15595;SDS011;7898;48.658;9.068;2023-05-10T04:53:06;1.80;;;1.65;;
15595;SDS011;7898;48.658;9.068;2023-05-10T04:55:34;3.92;;;1.42;;
15595;SDS011;7898;48.658;9.068;2023-05-10T04:58:01;3.30;;;1.63;;
15595;SDS011;7898;48.658;9.068;2023-05-10T05:00:28;2.65;;;1.80;;
15595;SDS011;7898;48.658;9.068;2023-05-10T05:02:55;1.85;;;1.67;;
15595;SDS011;7898;48.658;9.068;2023-05-10T05:05:22;2.97;;;1.73;;
15595;SDS011;7898;48.658;9.068;2023-05-10T05:07:49;3.42;;;1.80;;
15595;SDS011;7898;48.658;9.068;2023-05-10T05:10:16;3.25;;;1.92;;
15595;SDS011;7898;48.658;9.068;2023-05-10T05:12:44;1.75;;;1.65;;
15595;SDS011;7898;48.658;9.068;2023-05-10T05:15:11;4.95;;;1.83;;
15595;SDS011;7898;48.658;9.068;2023-05-10T05:17:38;1.85;;;1.48;;
15595;SDS011;7898;48.658;9.068;2023-05-10T05:20:05;2.33;;;1.48;;
15595;SDS011;7898;48.658;9.068;2023-05-10T05:22:33;3.17;;;1.83;;
15595;SDS011;7898;48.658;9.068;2023-05-10T05:25:01;3.63;;;1.73;;
15595;SDS011;7898;48.658;9.068;2023-05-10T05:27:29;1.40;;;1.30;;
15595;SDS011;7898;48.658;9.068;2023-05-10T05:29:57;1.50;;;1.40;;
15595;SDS011;7898;48.658;9.068;2023-05-10T05:32:24;1.88;;;1.60;;
15595;SDS011;7898;48.658;9.068;2023-05-10T05:34:51;1.75;;;1.60;;
15595;SDS011;7898;48.658;9.068;2023-05-10T05:37:19;2.33;;;1.90;;
15595;SDS011;7898;48.658;9.068;2023-05-10T05:39:47;1.75;;;1.38;;
15595;SDS011;7898;48.658;9.068;2023-05-10T05:42:14;1.98;;;1.77;;
15595;SDS011;7898;48.658;9.068;2023-05-10T05:44:43;2.10;;;1.90;;
15595;SDS011;7898;48.658;9.068;2023-05-10T05:47:12;2.90;;;1.90;;
15595;SDS011;7898;48.658;9.068;2023-05-10T05:49:39;2.20;;;2.00;;
15595;SDS011;7898;48.658;9.068;2023-05-10T05:52:05;2.03;;;1.80;;
15595;SDS011;7898;48.658;9.068;2023-05-10T05:54:32;4.60;;;2.03;;
15595;SDS011;7898;48.658;9.068;2023-05-10T05:56:59;3.83;;;2.80;;
15595;SDS011;7898;48.658;9.068;2023-05-10T05:59:27;3.88;;;1.88;;
15595;SDS011;7898;48.658;9.068;2023-05-10T06:01:54;2.85;;;1.98;;
15595;SDS011;7898;48.658;9.068;2023-05-10T06:04:22;2.03;;;1.58;;
15595;SDS011;7898;48.658;9.068;2023-05-10T06:06:49;2.63;;;1.55;;
15595;SDS011;7898;48.658;9.068;2023-05-10T06:09:16;1.58;;;1.48;;
15595;SDS011;7898;48.658;9.068;2023-05-10T06:11:43;1.75;;;1.60;;
15595;SDS011;7898;48.658;9.068;2023-05-10T06:14:10;2.50;;;1.65;;
15595;SDS011;7898;48.658;9.068;2023-05-10T06:16:36;2.53;;;2.00;;
15595;SDS011;7898;48.658;9.068;2023-05-10T06:19:03;3.13;;;2.67;;
15595;SDS011;7898;48.658;9.068;2023-05-10T06:21:32;2.00;;;1.90;;
15595;SDS011;7898;48.658;9.068;2023-05-10T06:23:58;3.95;;;2.50;;
15595;SDS011;7898;48.658;9.068;2023-05-10T06:26:25;4.05;;;2.25;;
15595;SDS011;7898;48.658;9.068;2023-05-10T06:28:52;2.38;;;2.17;;
15595;SDS011;7898;48.658;9.068;2023-05-10T06:31:19;3.88;;;2.22;;
15595;SDS011;7898;48.658;9.068;2023-05-10T06:33:46;2.00;;;1.73;;
15595;SDS011;7898;48.658;9.068;2023-05-10T06:36:13;2.45;;;1.90;;
15595;SDS011;7898;48.658;9.068;2023-05-10T06:38:41;2.05;;;1.40;;
15595;SDS011;7898;48.658;9.068;2023-05-10T06:41:08;3.30;;;1.30;;
15595;SDS011;7898;48.658;9.068;2023-05-10T06:43:35;1.40;;;1.30;;
15595;SDS011;7898;48.658;9.068;2023-05-10T06:46:04;2.95;;;1.50;;
15595;SDS011;7898;48.658;9.068;2023-05-10T06:48:32;1.98;;;1.30;;
15595;SDS011;7898;48.658;9.068;2023-05-10T06:50:59;1.40;;;1.30;;
15595;SDS011;7898;48.658;9.068;2023-05-10T06:53:26;1.30;;;1.20;;
15595;SDS011;7898;48.658;9.068;2023-05-10T06:55:54;2.83;;;1.20;;
15595;SDS011;7898;48.658;9.068;2023-05-10T06:58:21;1.85;;;1.55;;
15595;SDS011;7898;48.658;9.068;2023-05-10T07:00:48;2.78;;;1.75;;
15595;SDS011;7898;48.658;9.068;2023-05-10T07:03:15;2.30;;;1.52;;
15595;SDS011;7898;48.658;9.068;2023-05-10T07:05:42;1.88;;;1.50;;
15595;SDS011;7898;48.658;9.068;2023-05-10T07:08:10;2.78;;;1.42;;
15595;SDS011;7898;48.658;9.068;2023-05-10T07:10:38;1.25;;;1.15;;
15595;SDS011;7898;48.658;9.068;2023-05-10T07:13:06;1.40;;;1.20;;
15595;SDS011;7898;48.658;9.068;2023-05-10T07:15:33;2.33;;;2.00;;
15595;SDS011;7898;48.658;9.068;2023-05-10T07:18:00;3.85;;;1.35;;
15595;SDS011;7898;48.658;9.068;2023-05-10T07:20:27;2.38;;;1.25;;
15595;SDS011;7898;48.658;9.068;2023-05-10T07:22:53;4.00;;;1.38;;
15595;SDS011;7898;48.658;9.068;2023-05-10T07:25:20;2.63;;;1.50;;
15595;SDS011;7898;48.658;9.068;2023-05-10T07:27:47;1.20;;;1.10;;
15595;SDS011;7898;48.658;9.068;2023-05-10T07:30:15;1.73;;;1.25;;
15595;SDS011;7898;48.658;9.068;2023-05-10T07:32:42;4.40;;;1.33;;
15595;SDS011;7898;48.658;9.068;2023-05-10T07:35:10;3.70;;;1.25;;
15595;SDS011;7898;48.658;9.068;2023-05-10T07:37:36;1.73;;;1.20;;
15595;SDS011;7898;48.658;9.068;2023-05-10T07:40:04;1.13;;;1.00;;
15595;SDS011;7898;48.658;9.068;2023-05-10T07:42:31;2.45;;;0.90;;
15595;SDS011;7898;48.658;9.068;2023-05-10T07:44:58;3.08;;;1.00;;
15595;SDS011;7898;48.658;9.068;2023-05-10T07:47:26;0.68;;;0.65;;
15595;SDS011;7898;48.658;9.068;2023-05-10T07:49:53;3.92;;;0.90;;
15595;SDS011;7898;48.658;9.068;2023-05-10T07:52:20;1.02;;;0.80;;
15595;SDS011;7898;48.658;9.068;2023-05-10T07:54:47;0.88;;;0.60;;
15595;SDS011;7898;48.658;9.068;2023-05-10T07:57:15;0.77;;;0.77;;
15595;SDS011;7898;48.658;9.068;2023-05-10T07:59:42;1.33;;;0.85;;
15595;SDS011;7898;48.658;9.068;2023-05-10T08:02:10;2.67;;;1.10;;
15595;SDS011;7898;48.658;9.068;2023-05-10T08:04:38;0.98;;;0.80;;
15595;SDS011;7898;48.658;9.068;2023-05-10T08:07:05;0.60;;;0.60;;
15595;SDS011;7898;48.658;9.068;2023-05-10T08:09:32;1.25;;;0.88;;
15595;SDS011;7898;48.658;9.068;2023-05-10T08:11:59;0.70;;;0.60;;
15595;SDS011;7898;48.658;9.068;2023-05-10T08:14:27;1.08;;;0.60;;
15595;SDS011;7898;48.658;9.068;2023-05-10T08:16:54;1.00;;;0.88;;
15595;SDS011;7898;48.658;9.068;2023-05-10T08:19:22;0.70;;;0.70;;
15595;SDS011;7898;48.658;9.068;2023-05-10T08:21:50;1.30;;;0.60;;
15595;SDS011;7898;48.658;9.068;2023-05-10T08:24:18;4.07;;;0.73;;
15595;SDS011;7898;48.658;9.068;2023-05-10T08:26:45;0.55;;;0.50;;
15595;SDS011;7898;48.658;9.068;2023-05-10T08:29:12;0.50;;;0.43;;
15595;SDS011;7898;48.658;9.068;2023-05-10T08:31:39;1.15;;;0.45;;
15595;SDS011;7898;48.658;9.068;2023-05-10T08:34:06;0.80;;;0.60;;
15595;SDS011;7898;48.658;9.068;2023-05-10T08:36:33;1.35;;;0.60;;
15595;SDS011;7898;48.658;9.068;2023-05-10T08:39:02;1.73;;;0.40;;
15595;SDS011;7898;48.658;9.068;2023-05-10T08:41:29;2.17;;;0.52;;
15595;SDS011;7898;48.658;9.068;2023-05-10T08:43:58;2.33;;;0.50;;
15595;SDS011;7898;48.658;9.068;2023-05-10T08:46:30;0.43;;;0.43;;
15595;SDS011;7898;48.658;9.068;2023-05-10T08:48:59;2.33;;;0.68;;
15595;SDS011;7898;48.658;9.068;2023-05-10T08:51:29;1.50;;;0.60;;
15595;SDS011;7898;48.658;9.068;2023-05-10T08:54:03;0.95;;;0.85;;
15595;SDS011;7898;48.658;9.068;2023-05-10T08:56:30;0.70;;;0.55;;
15595;SDS011;7898;48.658;9.068;2023-05-10T08:58:57;0.43;;;0.40;;
15595;SDS011;7898;48.658;9.068;2023-05-10T09:01:24;3.05;;;0.60;;
15595;SDS011;7898;48.658;9.068;2023-05-10T09:03:53;1.25;;;1.13;;
15595;SDS011;7898;48.658;9.068;2023-05-10T09:06:20;2.58;;;0.95;;
15595;SDS011;7898;48.658;9.068;2023-05-10T09:08:47;0.80;;;0.60;;
15595;SDS011;7898;48.658;9.068;2023-05-10T09:11:16;1.20;;;0.50;;
15595;SDS011;7898;48.658;9.068;2023-05-10T09:13:43;0.70;;;0.50;;
15595;SDS011;7898;48.658;9.068;2023-05-10T09:16:11;0.50;;;0.45;;
15595;SDS011;7898;48.658;9.068;2023-05-10T09:18:38;1.08;;;0.40;;
15595;SDS011;7898;48.658;9.068;2023-05-10T09:21:05;1.50;;;0.60;;
15595;SDS011;7898;48.658;9.068;2023-05-10T09:23:32;4.25;;;0.40;;
15595;SDS011;7898;48.658;9.068;2023-05-10T09:26:02;1.15;;;0.52;;
15595;SDS011;7898;48.658;9.068;2023-05-10T09:28:32;1.70;;;0.45;;
15595;SDS011;7898;48.658;9.068;2023-05-10T09:30:59;1.38;;;1.00;;
15595;SDS011;7898;48.658;9.068;2023-05-10T09:33:26;1.70;;;1.10;;
15595;SDS011;7898;48.658;9.068;2023-05-10T09:35:53;3.65;;;2.70;;
15595;SDS011;7898;48.658;9.068;2023-05-10T09:38:20;2.45;;;1.10;;
15595;SDS011;7898;48.658;9.068;2023-05-10T09:40:50;0.65;;;0.60;;
15595;SDS011;7898;48.658;9.068;2023-05-10T09:43:21;2.78;;;0.80;;
15595;SDS011;7898;48.658;9.068;2023-05-10T09:45:49;0.75;;;0.40;;
15595;SDS011;7898;48.658;9.068;2023-05-10T09:48:18;0.77;;;0.50;;
15595;SDS011;7898;48.658;9.068;2023-05-10T09:50:55;1.35;;;0.75;;
15595;SDS011;7898;48.658;9.068;2023-05-10T09:53:23;1.70;;;0.50;;
15595;SDS011;7898;48.658;9.068;2023-05-10T09:55:50;0.47;;;0.30;;
15595;SDS011;7898;48.658;9.068;2023-05-10T09:58:17;3.03;;;0.35;;
15595;SDS011;7898;48.658;9.068;2023-05-10T10:00:44;0.60;;;0.40;;
15595;SDS011;7898;48.658;9.068;2023-05-10T10:03:18;0.65;;;0.40;;
15595;SDS011;7898;48.658;9.068;2023-05-10T10:05:46;0.82;;;0.40;;
15595;SDS011;7898;48.658;9.068;2023-05-10T10:08:14;1.38;;;0.50;;
15595;SDS011;7898;48.658;9.068;2023-05-10T10:10:41;0.30;;;0.30;;
15595;SDS011;7898;48.658;9.068;2023-05-10T10:13:09;0.70;;;0.50;;
15595;SDS011;7898;48.658;9.068;2023-05-10T10:15:36;1.08;;;0.60;;
15595;SDS011;7898;48.658;9.068;2023-05-10T10:18:04;0.63;;;0.40;;
15595;SDS011;7898;48.658;9.068;2023-05-10T10:20:33;0.75;;;0.32;;
15595;SDS011;7898;48.658;9.068;2023-05-10T10:22:59;1.45;;;0.60;;
15595;SDS011;7898;48.658;9.068;2023-05-10T10:25:26;1.38;;;0.50;;
15595;SDS011;7898;48.658;9.068;2023-05-10T10:27:59;0.77;;;0.40;;
15595;SDS011;7898;48.658;9.068;2023-05-10T10:30:35;0.90;;;0.50;;
15595;SDS011;7898;48.658;9.068;2023-05-10T10:33:13;0.98;;;0.60;;
15595;SDS011;7898;48.658;9.068;2023-05-10T10:36:07;2.20;;;0.75;;
15595;SDS011;7898;48.658;9.068;2023-05-10T10:38:36;2.13;;;0.73;;
15595;SDS011;7898;48.658;9.068;2023-05-10T10:41:08;2.92;;;0.68;;
15595;SDS011;7898;48.658;9.068;2023-05-10T10:43:37;0.70;;;0.60;;
15595;SDS011;7898;48.658;9.068;2023-05-10T10:46:10;1.05;;;0.70;;
15595;SDS011;7898;48.658;9.068;2023-05-10T10:48:39;1.58;;;0.60;;
15595;SDS011;7898;48.658;9.068;2023-05-10T10:51:08;2.38;;;0.60;;
15595;SDS011;7898;48.658;9.068;2023-05-10T10:53:36;2.13;;;0.50;;
15595;SDS011;7898;48.658;9.068;2023-05-10T10:56:07;4.18;;;0.60;;
15595;SDS011;7898;48.658;9.068;2023-05-10T10:58:36;1.45;;;0.50;;
15595;SDS011;7898;48.658;9.068;2023-05-10T11:01:10;10.15;;;0.80;;
15595;SDS011;7898;48.658;9.068;2023-05-10T11:03:39;1.83;;;0.60;;
15595;SDS011;7898;48.658;9.068;2023-05-10T11:06:06;1.60;;;0.70;;
15595;SDS011;7898;48.658;9.068;2023-05-10T11:08:40;1.15;;;0.60;;
15595;SDS011;7898;48.658;9.068;2023-05-10T11:11:09;1.85;;;0.60;;
15595;SDS011;7898;48.658;9.068;2023-05-10T11:13:40;2.05;;;0.85;;
15595;SDS011;7898;48.658;9.068;2023-05-10T11:16:10;0.98;;;0.70;;
15595;SDS011;7898;48.658;9.068;2023-05-10T11:21:44;5.97;;;0.68;;
15595;SDS011;7898;48.658;9.068;2023-05-10T11:24:14;0.93;;;0.70;;
15595;SDS011;7898;48.658;9.068;2023-05-10T11:26:41;0.52;;;0.50;;
15595;SDS011;7898;48.658;9.068;2023-05-10T11:29:08;5.18;;;0.90;;
15595;SDS011;7898;48.658;9.068;2023-05-10T11:31:38;0.75;;;0.50;;
15595;SDS011;7898;48.658;9.068;2023-05-10T11:34:08;0.98;;;0.70;;
15595;SDS011;7898;48.658;9.068;2023-05-10T11:36:36;1.15;;;0.70;;
15595;SDS011;7898;48.658;9.068;2023-05-10T11:39:03;3.15;;;0.90;;
15595;SDS011;7898;48.658;9.068;2023-05-10T11:41:32;6.80;;;0.82;;
15595;SDS011;7898;48.658;9.068;2023-05-10T11:43:59;1.27;;;0.90;;
15595;SDS011;7898;48.658;9.068;2023-05-10T11:46:26;0.90;;;0.70;;
15595;SDS011;7898;48.658;9.068;2023-05-10T11:48:57;0.75;;;0.60;;
15595;SDS011;7898;48.658;9.068;2023-05-10T11:51:29;1.20;;;0.65;;
15595;SDS011;7898;48.658;9.068;2023-05-10T11:53:59;1.75;;;0.88;;
15595;SDS011;7898;48.658;9.068;2023-05-10T11:56:25;2.15;;;0.63;;
15595;SDS011;7898;48.658;9.068;2023-05-10T11:58:54;3.20;;;1.00;;
15595;SDS011;7898;48.658;9.068;2023-05-10T12:01:22;4.05;;;2.10;;
15595;SDS011;7898;48.658;9.068;2023-05-10T12:03:50;1.50;;;0.98;;
15595;SDS011;7898;48.658;9.068;2023-05-10T12:06:19;4.40;;;1.10;;
15595;SDS011;7898;48.658;9.068;2023-05-10T12:08:47;1.45;;;0.77;;
15595;SDS011;7898;48.658;9.068;2023-05-10T12:11:17;1.63;;;0.95;;
15595;SDS011;7898;48.658;9.068;2023-05-10T12:13:45;1.98;;;0.60;;
15595;SDS011;7898;48.658;9.068;2023-05-10T12:16:14;3.33;;;0.90;;
15595;SDS011;7898;48.658;9.068;2023-05-10T12:18:42;0.70;;;0.60;;
15595;SDS011;7898;48.658;9.068;2023-05-10T12:21:10;0.85;;;0.80;;
15595;SDS011;7898;48.658;9.068;2023-05-10T12:23:37;1.42;;;0.93;;
15595;SDS011;7898;48.658;9.068;2023-05-10T12:26:05;3.50;;;0.63;;
15595;SDS011;7898;48.658;9.068;2023-05-10T12:28:34;1.17;;;0.70;;
15595;SDS011;7898;48.658;9.068;2023-05-10T12:31:02;3.47;;;1.05;;
15595;SDS011;7898;48.658;9.068;2023-05-10T12:33:36;1.75;;;1.05;;
15595;SDS011;7898;48.658;9.068;2023-05-10T12:36:06;1.48;;;0.95;;
15595;SDS011;7898;48.658;9.068;2023-05-10T12:38:35;0.98;;;0.70;;
15595;SDS011;7898;48.658;9.068;2023-05-10T12:41:03;1.88;;;0.93;;
15595;SDS011;7898;48.658;9.068;2023-05-10T12:43:31;1.67;;;0.73;;
15595;SDS011;7898;48.658;9.068;2023-05-10T12:45:58;2.53;;;0.80;;
15595;SDS011;7898;48.658;9.068;2023-05-10T12:48:31;2.90;;;1.10;;
15595;SDS011;7898;48.658;9.068;2023-05-10T12:51:03;1.42;;;0.65;;
15595;SDS011;7898;48.658;9.068;2023-05-10T12:53:33;3.00;;;0.70;;
15595;SDS011;7898;48.658;9.068;2023-05-10T12:56:00;0.73;;;0.70;;
15595;SDS011;7898;48.658;9.068;2023-05-10T12:58:27;1.40;;;0.82;;
15595;SDS011;7898;48.658;9.068;2023-05-10T13:00:54;2.75;;;1.83;;
15595;SDS011;7898;48.658;9.068;2023-05-10T13:03:22;5.72;;;0.90;;
15595;SDS011;7898;48.658;9.068;2023-05-10T13:05:50;4.95;;;0.80;;
15595;SDS011;7898;48.658;9.068;2023-05-10T13:08:17;3.50;;;0.70;;
15595;SDS011;7898;48.658;9.068;2023-05-10T13:10:44;5.13;;;1.35;;
15595;SDS011;7898;48.658;9.068;2023-05-10T13:13:11;1.65;;;1.00;;
15595;SDS011;7898;48.658;9.068;2023-05-10T13:15:38;1.83;;;0.77;;
15595;SDS011;7898;48.658;9.068;2023-05-10T13:18:04;1.42;;;1.00;;
15595;SDS011;7898;48.658;9.068;2023-05-10T13:20:31;1.30;;;0.88;;
15595;SDS011;7898;48.658;9.068;2023-05-10T13:23:00;1.75;;;0.70;;
15595;SDS011;7898;48.658;9.068;2023-05-10T13:25:27;2.42;;;1.02;;
15595;SDS011;7898;48.658;9.068;2023-05-10T13:27:54;1.52;;;0.90;;
15595;SDS011;7898;48.658;9.068;2023-05-10T13:30:21;1.33;;;0.85;;
15595;SDS011;7898;48.658;9.068;2023-05-10T13:32:48;1.33;;;0.77;;
15595;SDS011;7898;48.658;9.068;2023-05-10T13:35:15;5.50;;;1.08;;
15595;SDS011;7898;48.658;9.068;2023-05-10T13:37:42;2.63;;;0.90;;
15595;SDS011;7898;48.658;9.068;2023-05-10T13:40:11;1.30;;;0.85;;
15595;SDS011;7898;48.658;9.068;2023-05-10T13:42:38;3.13;;;0.98;;
15595;SDS011;7898;48.658;9.068;2023-05-10T13:45:05;3.75;;;1.10;;
15595;SDS011;7898;48.658;9.068;2023-05-10T13:47:33;1.75;;;0.80;;
15595;SDS011;7898;48.658;9.068;2023-05-10T13:50:00;2.25;;;1.20;;
15595;SDS011;7898;48.658;9.068;2023-05-10T13:52:28;2.30;;;0.77;;
15595;SDS011;7898;48.658;9.068;2023-05-10T13:54:55;3.13;;;0.88;;
15595;SDS011;7898;48.658;9.068;2023-05-10T13:57:24;4.93;;;0.80;;
15595;SDS011;7898;48.658;9.068;2023-05-10T13:59:51;1.73;;;0.82;;
15595;SDS011;7898;48.658;9.068;2023-05-10T14:02:18;1.63;;;0.70;;
15595;SDS011;7898;48.658;9.068;2023-05-10T14:04:45;3.70;;;1.00;;
15595;SDS011;7898;48.658;9.068;2023-05-10T14:07:13;2.08;;;0.80;;
15595;SDS011;7898;48.658;9.068;2023-05-10T14:09:40;2.35;;;0.75;;
15595;SDS011;7898;48.658;9.068;2023-05-10T14:12:07;1.20;;;0.73;;
15595;SDS011;7898;48.658;9.068;2023-05-10T14:14:35;1.30;;;0.90;;
15595;SDS011;7898;48.658;9.068;2023-05-10T14:17:02;0.85;;;0.70;;
15595;SDS011;7898;48.658;9.068;2023-05-10T14:19:29;3.17;;;0.85;;
15595;SDS011;7898;48.658;9.068;2023-05-10T14:21:57;0.90;;;0.80;;
15595;SDS011;7898;48.658;9.068;2023-05-10T14:24:24;1.13;;;0.85;;
15595;SDS011;7898;48.658;9.068;2023-05-10T14:26:51;2.25;;;0.70;;
15595;SDS011;7898;48.658;9.068;2023-05-10T14:29:19;1.92;;;0.70;;
15595;SDS011;7898;48.658;9.068;2023-05-10T14:31:47;1.42;;;0.90;;
15595;SDS011;7898;48.658;9.068;2023-05-10T14:34:14;1.45;;;0.90;;
15595;SDS011;7898;48.658;9.068;2023-05-10T14:36:41;1.33;;;0.90;;
15595;SDS011;7898;48.658;9.068;2023-05-10T14:39:08;1.70;;;0.70;;
15595;SDS011;7898;48.658;9.068;2023-05-10T14:41:37;2.28;;;0.80;;
15595;SDS011;7898;48.658;9.068;2023-05-10T14:44:05;2.10;;;0.98;;
15595;SDS011;7898;48.658;9.068;2023-05-10T14:46:32;1.95;;;0.63;;
15595;SDS011;7898;48.658;9.068;2023-05-10T14:49:01;1.08;;;0.80;;
15595;SDS011;7898;48.658;9.068;2023-05-10T14:51:28;1.88;;;0.90;;
15595;SDS011;7898;48.658;9.068;2023-05-10T14:53:55;2.08;;;0.90;;
15595;SDS011;7898;48.658;9.068;2023-05-10T14:56:22;5.65;;;1.10;;
15595;SDS011;7898;48.658;9.068;2023-05-10T14:58:49;1.20;;;0.50;;
15595;SDS011;7898;48.658;9.068;2023-05-10T15:01:16;2.67;;;0.68;;
15595;SDS011;7898;48.658;9.068;2023-05-10T15:03:44;2.75;;;0.90;;
15595;SDS011;7898;48.658;9.068;2023-05-10T15:06:13;2.03;;;0.82;;
15595;SDS011;7898;48.658;9.068;2023-05-10T15:08:40;1.10;;;0.52;;
15595;SDS011;7898;48.658;9.068;2023-05-10T15:11:07;0.57;;;0.40;;
15595;SDS011;7898;48.658;9.068;2023-05-10T15:13:34;0.98;;;0.60;;